createdAt,value
2018-04-01T00:04:24.000Z,11.634
2018-04-01T00:09:24.000Z,11.357
2018-04-01T00:14:24.000Z,11.357
2018-04-01T00:19:24.000Z,11.357
2018-04-01T00:24:24.000Z,11.357
2018-04-01T00:29:24.000Z,11.357
2018-04-01T00:34:24.000Z,11.357
2018-04-01T00:39:24.000Z,11.357
2018-04-01T00:44:24.000Z,11.357
2018-04-01T00:49:24.000Z,11.357
2018-04-01T00:54:24.000Z,11.357
2018-04-01T00:59:24.000Z,11.634
2018-04-01T01:04:24.000Z,11.357
2018-04-01T01:09:24.000Z,11.357
2018-04-01T01:14:24.000Z,11.357
2018-04-01T01:19:24.000Z,11.357
2018-04-01T01:24:24.000Z,11.357
2018-04-01T01:29:24.000Z,11.357
2018-04-01T01:34:24.000Z,11.080
2018-04-01T01:39:24.000Z,11.080
2018-04-01T01:44:24.000Z,11.080
2018-04-01T01:49:24.000Z,11.080
2018-04-01T01:54:24.000Z,11.080
2018-04-01T01:59:24.000Z,11.080
2018-04-01T02:04:24.000Z,10.803
2018-04-01T02:09:24.000Z,10.803
2018-04-01T02:14:24.000Z,10.803
2018-04-01T02:19:24.000Z,10.803
2018-04-01T02:24:24.000Z,10.803
2018-04-01T02:29:24.000Z,10.803
2018-04-01T02:34:24.000Z,10.803
2018-04-01T02:39:24.000Z,10.803
2018-04-01T02:44:24.000Z,10.803
2018-04-01T02:49:24.000Z,10.803
2018-04-01T02:54:24.000Z,10.803
2018-04-01T02:59:24.000Z,10.803
2018-04-01T03:04:24.000Z,10.803
2018-04-01T03:09:24.000Z,10.803
2018-04-01T03:14:24.000Z,10.803
2018-04-01T03:19:24.000Z,10.803
2018-04-01T03:24:24.000Z,10.803
2018-04-01T03:29:24.000Z,10.803
2018-04-01T03:34:25.000Z,10.803
2018-04-01T03:39:24.000Z,10.803
2018-04-01T03:44:24.000Z,10.803
2018-04-01T03:49:24.000Z,10.803
2018-04-01T03:54:24.000Z,10.803
2018-04-01T03:59:24.000Z,10.803
2018-04-01T04:04:24.000Z,10.803
2018-04-01T04:09:24.000Z,10.803
2018-04-01T04:14:24.000Z,10.803
2018-04-01T04:19:24.000Z,10.803
2018-04-01T04:24:24.000Z,10.803
2018-04-01T04:29:24.000Z,10.803
2018-04-01T04:34:24.000Z,10.803
2018-04-01T04:39:24.000Z,10.803
2018-04-01T04:44:24.000Z,10.803
2018-04-01T04:49:24.000Z,10.803
2018-04-01T04:54:24.000Z,10.803
2018-04-01T04:59:24.000Z,10.803
2018-04-01T05:04:24.000Z,10.803
2018-04-01T05:09:24.000Z,10.803
2018-04-01T05:14:24.000Z,10.803
2018-04-01T05:19:24.000Z,10.803
2018-04-01T05:24:24.000Z,10.803
2018-04-01T05:29:24.000Z,10.803
2018-04-01T05:34:24.000Z,10.803
2018-04-01T05:39:24.000Z,10.803
2018-04-01T05:44:24.000Z,10.803
2018-04-01T05:49:24.000Z,10.803
2018-04-01T05:54:24.000Z,10.803
2018-04-01T05:59:24.000Z,10.803
2018-04-01T06:04:24.000Z,10.803
2018-04-01T06:09:24.000Z,10.803
2018-04-01T06:14:24.000Z,10.803
2018-04-01T06:19:24.000Z,10.803
2018-04-01T06:24:24.000Z,10.803
2018-04-01T06:29:24.000Z,11.080
2018-04-01T06:34:24.000Z,11.080
2018-04-01T06:39:24.000Z,11.080
2018-04-01T06:44:24.000Z,11.080
2018-04-01T06:49:24.000Z,11.080
2018-04-01T06:54:24.000Z,11.080
2018-04-01T06:59:24.000Z,11.080
2018-04-01T07:04:24.000Z,10.803
2018-04-01T07:09:24.000Z,10.803
2018-04-01T07:14:24.000Z,10.803
2018-04-01T07:19:24.000Z,10.803
2018-04-01T07:24:24.000Z,10.803
2018-04-01T07:29:24.000Z,10.803
2018-04-01T07:34:24.000Z,10.803
2018-04-01T07:39:24.000Z,10.803
2018-04-01T07:44:24.000Z,10.803
2018-04-01T07:49:24.000Z,10.803
2018-04-01T07:54:24.000Z,10.803
2018-04-01T07:59:24.000Z,10.803
2018-04-01T08:04:24.000Z,10.803
2018-04-01T08:09:24.000Z,10.803
2018-04-01T08:14:24.000Z,10.803
2018-04-01T08:19:24.000Z,10.803
2018-04-01T08:24:24.000Z,10.803
2018-04-01T08:29:24.000Z,10.803
2018-04-01T08:34:24.000Z,10.803
2018-04-01T08:39:24.000Z,10.803
2018-04-01T08:44:24.000Z,10.803
2018-04-01T08:49:24.000Z,10.803
2018-04-01T08:54:24.000Z,10.803
2018-04-01T08:59:24.000Z,10.803
2018-04-01T09:04:24.000Z,10.803
2018-04-01T09:09:24.000Z,10.803
2018-04-01T09:14:24.000Z,10.803
2018-04-01T09:19:24.000Z,10.803
2018-04-01T09:24:24.000Z,10.803
2018-04-01T09:29:24.000Z,10.803
2018-04-01T09:34:24.000Z,10.803
2018-04-01T09:39:24.000Z,10.803
2018-04-01T09:44:24.000Z,10.803
2018-04-01T09:49:24.000Z,10.803
2018-04-01T09:54:24.000Z,10.803
2018-04-01T09:59:24.000Z,10.803
2018-04-01T10:04:24.000Z,10.803
2018-04-01T10:09:24.000Z,10.803
2018-04-01T10:14:24.000Z,10.803
2018-04-01T10:19:24.000Z,10.803
2018-04-01T10:24:24.000Z,10.803
2018-04-01T10:29:24.000Z,10.803
2018-04-01T10:34:24.000Z,10.803
2018-04-01T10:39:24.000Z,10.803
2018-04-01T10:44:24.000Z,10.803
2018-04-01T10:49:24.000Z,10.803
2018-04-01T10:54:24.000Z,10.803
2018-04-01T10:59:24.000Z,10.803
2018-04-01T11:04:24.000Z,10.526
2018-04-01T11:09:24.000Z,10.249
2018-04-01T11:14:24.000Z,10.249
2018-04-01T11:19:24.000Z,10.249
2018-04-01T11:24:24.000Z,10.249
2018-04-01T11:29:24.000Z,10.249
2018-04-01T11:34:24.000Z,10.249
2018-04-01T11:39:24.000Z,10.249
2018-04-01T11:44:24.000Z,10.249
2018-04-01T11:49:24.000Z,10.249
2018-04-01T11:54:24.000Z,10.249
2018-04-01T11:59:24.000Z,10.249
2018-04-01T12:04:24.000Z,10.249
2018-04-01T12:09:24.000Z,10.249
2018-04-01T12:14:24.000Z,10.249
2018-04-01T12:19:24.000Z,10.249
2018-04-01T12:24:24.000Z,10.249
2018-04-01T12:29:24.000Z,10.249
2018-04-01T12:34:24.000Z,10.249
2018-04-01T12:39:24.000Z,10.249
2018-04-01T12:44:24.000Z,10.249
2018-04-01T12:49:24.000Z,10.249
2018-04-01T12:54:24.000Z,10.249
2018-04-01T12:59:24.000Z,10.249
2018-04-01T13:04:24.000Z,10.249
2018-04-01T13:09:24.000Z,10.249
2018-04-01T13:14:24.000Z,10.249
2018-04-01T13:19:24.000Z,10.249
2018-04-01T13:24:24.000Z,10.249
2018-04-01T13:29:24.000Z,10.249
2018-04-01T13:34:24.000Z,10.249
2018-04-01T13:39:24.000Z,10.249
2018-04-01T13:44:24.000Z,10.249
2018-04-01T13:49:24.000Z,10.249
2018-04-01T13:54:24.000Z,10.249
2018-04-01T13:59:24.000Z,10.249
2018-04-01T14:04:24.000Z,10.249
2018-04-01T14:09:24.000Z,10.249
2018-04-01T14:14:24.000Z,10.249
2018-04-01T14:19:24.000Z,10.249
2018-04-01T14:24:24.000Z,10.249
2018-04-01T14:29:24.000Z,10.249
2018-04-01T14:34:24.000Z,10.249
2018-04-01T14:39:24.000Z,10.249
2018-04-01T14:44:24.000Z,10.249
2018-04-01T14:49:24.000Z,10.249
2018-04-01T14:54:24.000Z,10.249
2018-04-01T14:59:24.000Z,10.249
2018-04-01T15:04:24.000Z,10.249
2018-04-01T15:09:24.000Z,10.249
2018-04-01T15:14:24.000Z,10.249
2018-04-01T15:19:24.000Z,10.249
2018-04-01T15:24:24.000Z,10.249
2018-04-01T15:29:24.000Z,10.249
2018-04-01T15:34:24.000Z,10.249
2018-04-01T15:39:24.000Z,10.249
2018-04-01T15:44:24.000Z,10.249
2018-04-01T15:49:24.000Z,10.249
2018-04-01T15:54:24.000Z,10.249
2018-04-01T15:59:24.000Z,10.249
2018-04-01T16:04:24.000Z,10.249
2018-04-01T16:09:24.000Z,10.249
2018-04-01T16:14:24.000Z,10.249
2018-04-01T16:19:24.000Z,10.249
2018-04-01T16:24:24.000Z,10.249
2018-04-01T16:29:24.000Z,10.249
2018-04-01T16:34:24.000Z,10.249
2018-04-01T16:39:24.000Z,10.249
2018-04-01T16:44:24.000Z,10.249
2018-04-01T16:49:24.000Z,10.249
2018-04-01T16:54:24.000Z,10.249
2018-04-01T16:59:24.000Z,10.249
2018-04-01T17:04:24.000Z,10.249
2018-04-01T17:09:24.000Z,10.249
2018-04-01T17:14:24.000Z,10.249
2018-04-01T17:19:24.000Z,10.249
2018-04-01T17:24:24.000Z,10.249
2018-04-01T17:29:24.000Z,10.249
2018-04-01T17:34:24.000Z,10.249
2018-04-01T17:39:24.000Z,10.249
2018-04-01T17:44:24.000Z,10.249
2018-04-01T17:49:24.000Z,10.249
2018-04-01T17:54:24.000Z,10.249
2018-04-01T17:59:24.000Z,10.249
2018-04-01T18:04:24.000Z,10.249
2018-04-01T18:09:24.000Z,10.249
2018-04-01T18:14:24.000Z,9.972
2018-04-01T18:19:24.000Z,9.695
2018-04-01T18:24:24.000Z,9.695
2018-04-01T18:29:24.000Z,9.695
2018-04-01T18:34:24.000Z,9.695
2018-04-01T18:39:24.000Z,9.695
2018-04-01T18:44:24.000Z,9.695
2018-04-01T18:49:24.000Z,9.695
2018-04-01T18:54:24.000Z,9.695
2018-04-01T18:59:24.000Z,9.695
2018-04-01T19:04:24.000Z,9.695
2018-04-01T19:09:24.000Z,9.695
2018-04-01T19:14:24.000Z,9.695
2018-04-01T19:19:24.000Z,9.695
2018-04-01T19:24:24.000Z,9.695
2018-04-01T19:29:24.000Z,9.695
2018-04-01T19:34:24.000Z,9.695
2018-04-01T19:39:24.000Z,9.695
2018-04-01T19:44:24.000Z,9.695
2018-04-01T19:49:24.000Z,9.695
2018-04-01T19:54:24.000Z,9.695
2018-04-01T19:59:24.000Z,9.695
2018-04-01T20:04:24.000Z,9.695
2018-04-01T20:09:24.000Z,9.695
2018-04-01T20:14:24.000Z,9.695
2018-04-01T20:19:24.000Z,9.695
2018-04-01T20:24:24.000Z,9.695
2018-04-01T20:29:24.000Z,9.695
2018-04-01T20:34:24.000Z,9.695
2018-04-01T20:39:24.000Z,9.695
2018-04-01T20:44:24.000Z,9.695
2018-04-01T20:49:24.000Z,9.695
2018-04-01T20:54:24.000Z,9.695
2018-04-01T20:59:24.000Z,9.695
2018-04-01T21:04:24.000Z,9.695
2018-04-01T21:09:24.000Z,9.695
2018-04-01T21:14:24.000Z,9.695
2018-04-01T21:19:24.000Z,9.695
2018-04-01T21:24:24.000Z,9.695
2018-04-01T21:29:24.000Z,9.695
2018-04-01T21:34:24.000Z,9.695
2018-04-01T21:39:24.000Z,9.695
2018-04-01T21:44:24.000Z,9.695
2018-04-01T21:49:24.000Z,9.695
2018-04-01T21:54:24.000Z,9.695
2018-04-01T21:59:24.000Z,9.695
2018-04-01T22:04:24.000Z,9.695
2018-04-01T22:09:24.000Z,9.695
2018-04-01T22:14:24.000Z,9.695
2018-04-01T22:19:24.000Z,9.695
2018-04-01T22:24:24.000Z,9.695
2018-04-01T22:29:24.000Z,9.695
2018-04-01T22:34:24.000Z,9.695
2018-04-01T22:39:24.000Z,9.695
2018-04-01T22:44:24.000Z,9.695
2018-04-01T22:49:24.000Z,9.695
2018-04-01T22:54:24.000Z,9.695
2018-04-01T22:59:24.000Z,9.695
2018-04-01T23:04:24.000Z,9.695
2018-04-01T23:09:24.000Z,9.695
2018-04-01T23:14:24.000Z,9.695
2018-04-01T23:19:24.000Z,9.695
2018-04-01T23:24:24.000Z,9.695
2018-04-01T23:29:24.000Z,9.695
2018-04-01T23:34:24.000Z,9.695
2018-04-01T23:39:24.000Z,9.695
2018-04-01T23:44:24.000Z,9.695
2018-04-01T23:49:24.000Z,9.695
2018-04-01T23:54:24.000Z,9.695
2018-04-01T23:59:24.000Z,9.695
